Time;durP1;ratioP1;P1;durP2;ratioP2;P2;SDS_P1;SDS_P2;PMS_P1;PMS_P2;Temp;Humidity;BMP_temperature;BMP_pressure;BME280_temperature;BME280_humidity;BME280_pressure;Samples;Min_cycle;Max_cycle;Signal;HPM_P1;HPM_P2
2022/01/05 00:02:07;;;;;;;;;;;4.40;99.90;;;;;;5011471;28;20300;-81
2022/01/05 00:04:33;;;;;;;;;;;4.30;99.90;;;;;;5011347;28;19928;-82
2022/01/05 00:06:59;;;;;;;;;;;4.30;99.90;;;;;;5010084;28;19928;-82
2022/01/05 00:09:24;;;;;;;;;;;4.30;99.90;;;;;;5013371;28;19921;-81
2022/01/05 00:11:50;;;;;;;;;;;4.30;99.90;;;;;;5030352;28;20454;-83
2022/01/05 00:14:15;;;;;;;;;;;4.30;99.90;;;;;;4996827;28;20028;-82
2022/01/05 00:16:41;;;;;;;;;;;4.30;99.90;;;;;;4994459;28;19941;-83
2022/01/05 00:19:07;;;;;;;;;;;4.30;99.90;;;;;;5012141;28;20427;-82
2022/01/05 00:21:32;;;;;;;;;;;4.30;99.90;;;;;;4999499;28;19921;-81
2022/01/05 00:23:58;;;;;;;;;;;4.30;99.90;;;;;;4998048;28;20629;-83
2022/01/05 00:26:25;;;;;;;;;;;4.30;99.90;;;;;;5010065;28;19925;-83
2022/01/05 00:28:51;;;;;;;;;;;4.30;99.90;;;;;;4978422;28;20012;-83
2022/01/05 00:31:16;;;;;;;;;;;4.20;99.90;;;;;;4994761;28;20444;-82
2022/01/05 00:33:42;;;;;;;;;;;4.30;99.90;;;;;;4994620;28;19918;-82
2022/01/05 00:36:08;;;;;;;;;;;4.20;99.90;;;;;;4994187;28;19914;-83
2022/01/05 00:38:34;;;;;;;;;;;4.30;99.90;;;;;;4977170;28;19917;-82
2022/01/05 00:41:00;;;;;;;;;;;4.20;99.90;;;;;;5007246;28;19921;-82
2022/01/05 00:43:26;;;;;;;;;;;4.20;99.90;;;;;;5007834;28;20012;-82
2022/01/05 00:45:52;;;;;;;;;;;4.20;99.90;;;;;;5031971;28;20507;-82
2022/01/05 00:48:17;;;;;;;;;;;4.20;99.90;;;;;;5013957;28;19917;-82
2022/01/05 00:50:43;;;;;;;;;;;4.20;99.90;;;;;;4981719;28;19925;-83
2022/01/05 00:53:09;;;;;;;;;;;4.20;99.90;;;;;;4997371;28;19956;-83
2022/01/05 00:55:34;;;;;;;;;;;4.20;99.90;;;;;;5013881;28;19916;-82
2022/01/05 00:58:00;;;;;;;;;;;4.20;99.90;;;;;;5013491;28;19918;-82
2022/01/05 01:00:25;;;;;;;;;;;4.30;99.90;;;;;;4996481;28;20313;-81
2022/01/05 01:02:51;;;;;;;;;;;4.20;99.90;;;;;;4998566;28;19917;-80
2022/01/05 01:05:17;;;;;;;;;;;4.20;99.90;;;;;;4999925;28;19917;-82
2022/01/05 01:07:44;;;;;;;;;;;4.10;99.90;;;;;;5032261;28;19917;-82
2022/01/05 01:10:10;;;;;;;;;;;4.00;99.90;;;;;;4995477;28;19980;-82
2022/01/05 01:12:35;;;;;;;;;;;4.00;99.90;;;;;;4980562;28;19917;-82
2022/01/05 01:15:03;;;;;;;;;;;4.00;99.90;;;;;;4980276;28;19918;-78
2022/01/05 01:17:28;;;;;;;;;;;4.00;99.90;;;;;;4991135;28;19917;-80
2022/01/05 01:19:54;;;;;;;;;;;3.90;99.90;;;;;;5015524;28;19966;-82
2022/01/05 01:22:19;;;;;;;;;;;3.90;99.90;;;;;;4992730;28;19918;-80
2022/01/05 01:24:45;;;;;;;;;;;3.90;99.90;;;;;;5027977;28;20343;-82
2022/01/05 01:27:11;;;;;;;;;;;3.90;99.90;;;;;;4999016;28;19917;-83
2022/01/05 01:29:36;;;;;;;;;;;3.80;99.90;;;;;;4995047;28;19917;-82
2022/01/05 01:32:04;;;;;;;;;;;3.80;99.90;;;;;;5002734;28;20402;-82
2022/01/05 01:34:30;;;;;;;;;;;3.80;99.90;;;;;;5021516;28;19924;-82
2022/01/05 01:36:55;;;;;;;;;;;3.80;99.90;;;;;;4992804;28;19917;-81
2022/01/05 01:39:21;;;;;;;;;;;3.70;99.90;;;;;;5013737;28;19913;-82
2022/01/05 01:41:47;;;;;;;;;;;3.70;99.90;;;;;;5031960;28;20416;-82
2022/01/05 01:44:12;;;;;;;;;;;3.70;99.90;;;;;;5012350;28;19926;-81
2022/01/05 01:46:38;;;;;;;;;;;3.70;99.90;;;;;;4979180;28;19949;-82
2022/01/05 01:49:04;;;;;;;;;;;3.70;99.90;;;;;;4998786;28;19917;-82
2022/01/05 01:51:29;;;;;;;;;;;3.70;99.90;;;;;;5015506;28;19917;-82
2022/01/05 01:53:55;;;;;;;;;;;3.60;99.90;;;;;;5015329;28;19913;-81
2022/01/05 01:56:22;;;;;;;;;;;3.60;99.90;;;;;;4998587;28;19913;-82
2022/01/05 01:58:48;;;;;;;;;;;3.60;99.90;;;;;;4996560;28;19913;-83
2022/01/05 02:01:14;;;;;;;;;;;3.60;99.90;;;;;;4994113;28;19913;-82
2022/01/05 02:03:40;;;;;;;;;;;3.50;99.90;;;;;;5002040;28;19917;-82
2022/01/05 02:06:06;;;;;;;;;;;3.50;99.90;;;;;;5014984;28;20284;-82
2022/01/05 02:08:31;;;;;;;;;;;3.50;99.90;;;;;;4997958;28;19943;-82
2022/01/05 02:10:57;;;;;;;;;;;3.50;99.90;;;;;;4998705;28;19950;-81
2022/01/05 02:13:22;;;;;;;;;;;3.50;99.90;;;;;;5025187;28;19923;-82
2022/01/05 02:15:48;;;;;;;;;;;3.50;99.90;;;;;;4998184;28;19923;-82
2022/01/05 02:20:49;;;;;;;;;;;3.50;99.90;;;;;;5015180;28;20387;-82
2022/01/05 02:23:15;;;;;;;;;;;3.60;99.90;;;;;;4996474;28;20596;-82
2022/01/05 02:25:41;;;;;;;;;;;3.60;99.90;;;;;;5014339;28;19913;-82
2022/01/05 02:28:07;;;;;;;;;;;3.60;99.90;;;;;;5014893;28;20368;-82
2022/01/05 02:30:32;;;;;;;;;;;3.50;99.90;;;;;;5014265;28;19917;-82
2022/01/05 02:32:58;;;;;;;;;;;3.50;99.90;;;;;;4987729;28;19921;-81
2022/01/05 02:35:24;;;;;;;;;;;3.40;99.90;;;;;;5014205;28;19921;-81
2022/01/05 02:37:52;;;;;;;;;;;3.40;99.90;;;;;;5014502;28;19952;-81
2022/01/05 02:40:19;;;;;;;;;;;3.40;99.90;;;;;;5013869;28;20372;-82
2022/01/05 02:42:44;;;;;;;;;;;3.40;99.90;;;;;;5014558;28;19928;-82
2022/01/05 02:45:11;;;;;;;;;;;3.40;99.90;;;;;;5012486;28;19910;-80
2022/01/05 02:47:37;;;;;;;;;;;3.40;99.90;;;;;;5014068;28;20287;-82
2022/01/05 02:50:04;;;;;;;;;;;3.40;99.90;;;;;;4997492;28;20441;-82
2022/01/05 02:52:30;;;;;;;;;;;3.50;99.90;;;;;;4998113;28;19944;-82
2022/01/05 02:54:55;;;;;;;;;;;3.50;99.90;;;;;;4997905;28;20380;-82
2022/01/05 02:57:21;;;;;;;;;;;3.50;99.90;;;;;;4997327;28;19940;-81
2022/01/05 02:59:46;;;;;;;;;;;3.50;99.90;;;;;;5030920;28;19920;-82
2022/01/05 03:02:12;;;;;;;;;;;3.50;99.90;;;;;;4997952;28;19921;-82
2022/01/05 03:04:38;;;;;;;;;;;3.50;99.90;;;;;;5014154;28;19921;-82
2022/01/05 03:07:03;;;;;;;;;;;3.50;99.90;;;;;;4996949;28;19961;-82
2022/01/05 03:09:29;;;;;;;;;;;3.60;99.90;;;;;;5009966;28;19920;-81
2022/01/05 03:11:54;;;;;;;;;;;3.60;99.90;;;;;;5025066;28;19921;-82
2022/01/05 03:14:20;;;;;;;;;;;3.60;99.90;;;;;;5014221;28;20015;-82
2022/01/05 03:16:46;;;;;;;;;;;3.60;99.90;;;;;;5031145;28;19958;-82
2022/01/05 03:19:12;;;;;;;;;;;3.70;99.90;;;;;;5013269;28;19917;-82
2022/01/05 03:21:37;;;;;;;;;;;3.70;99.90;;;;;;5014004;28;19914;-80
2022/01/05 03:24:03;;;;;;;;;;;3.70;99.90;;;;;;5013903;28;19916;-82
2022/01/05 03:26:29;;;;;;;;;;;3.70;99.90;;;;;;4997055;28;20364;-83
2022/01/05 03:28:55;;;;;;;;;;;3.70;99.90;;;;;;5013098;28;19913;-82
2022/01/05 03:31:20;;;;;;;;;;;3.70;99.90;;;;;;4996891;28;20680;-82
2022/01/05 03:33:46;;;;;;;;;;;3.80;99.90;;;;;;4997532;28;19924;-82
2022/01/05 03:36:12;;;;;;;;;;;3.80;99.90;;;;;;4993413;28;19920;-81
2022/01/05 03:38:37;;;;;;;;;;;3.80;99.90;;;;;;4993767;28;19960;-83
2022/01/05 03:41:03;;;;;;;;;;;3.70;99.90;;;;;;4985804;28;19924;-82
2022/01/05 03:43:28;;;;;;;;;;;3.80;99.90;;;;;;4977812;28;19917;-81
2022/01/05 03:45:54;;;;;;;;;;;3.80;99.90;;;;;;5009280;28;19924;-81
2022/01/05 03:48:20;;;;;;;;;;;3.80;99.90;;;;;;5010301;28;19918;-82
2022/01/05 03:50:46;;;;;;;;;;;3.80;99.90;;;;;;5009969;28;19925;-82
2022/01/05 03:53:11;;;;;;;;;;;3.80;99.90;;;;;;5012354;28;20341;-82
2022/01/05 03:55:38;;;;;;;;;;;3.90;99.90;;;;;;5009765;28;20030;-82
2022/01/05 03:58:04;;;;;;;;;;;3.90;99.90;;;;;;4993981;28;19914;-82
2022/01/05 04:00:30;;;;;;;;;;;3.90;99.90;;;;;;4995907;28;19913;-82
2022/01/05 04:02:56;;;;;;;;;;;3.90;99.90;;;;;;4993987;28;20309;-82
2022/01/05 04:05:22;;;;;;;;;;;3.90;99.90;;;;;;4977001;28;20397;-82
2022/01/05 04:07:49;;;;;;;;;;;3.80;99.90;;;;;;5000215;28;19913;-82
2022/01/05 04:10:16;;;;;;;;;;;3.90;99.90;;;;;;5009391;28;19945;-82
2022/01/05 04:12:41;;;;;;;;;;;3.80;99.90;;;;;;4977816;28;19920;-80
2022/01/05 04:15:07;;;;;;;;;;;3.80;99.90;;;;;;4997607;28;19918;-81
2022/01/05 04:17:33;;;;;;;;;;;3.80;99.90;;;;;;5010036;28;19921;-82
2022/01/05 04:19:58;;;;;;;;;;;3.70;99.90;;;;;;5012696;28;19920;-82
2022/01/05 04:22:24;;;;;;;;;;;3.70;99.90;;;;;;5012062;28;20384;-82
2022/01/05 04:24:49;;;;;;;;;;;3.70;99.90;;;;;;5013280;28;20399;-81
2022/01/05 04:27:15;;;;;;;;;;;3.70;99.90;;;;;;4996494;28;19924;-82
2022/01/05 04:29:41;;;;;;;;;;;3.70;99.90;;;;;;4993036;28;19913;-82
2022/01/05 04:32:07;;;;;;;;;;;3.70;99.90;;;;;;4996190;28;19980;-82
2022/01/05 04:34:33;;;;;;;;;;;3.70;99.90;;;;;;4977304;28;19992;-81
2022/01/05 04:36:58;;;;;;;;;;;3.70;99.90;;;;;;4999127;28;19953;-83
2022/01/05 04:39:24;;;;;;;;;;;3.70;99.90;;;;;;5009493;28;19963;-81
2022/01/05 04:41:49;;;;;;;;;;;3.70;99.90;;;;;;5001132;28;19941;-82
2022/01/05 04:44:15;;;;;;;;;;;3.70;99.90;;;;;;4981875;28;19921;-81
2022/01/05 04:46:41;;;;;;;;;;;3.70;99.90;;;;;;4999843;28;19917;-83
2022/01/05 04:49:06;;;;;;;;;;;3.70;99.90;;;;;;4999666;28;20334;-81
2022/01/05 04:51:32;;;;;;;;;;;3.70;99.90;;;;;;5000319;28;20368;-82
2022/01/05 04:53:57;;;;;;;;;;;3.80;99.90;;;;;;5000309;28;19921;-81
2022/01/05 04:56:23;;;;;;;;;;;3.80;99.90;;;;;;5015955;28;19920;-82
2022/01/05 04:58:48;;;;;;;;;;;3.80;99.90;;;;;;5015825;28;19964;-82
2022/01/05 05:01:14;;;;;;;;;;;3.80;99.90;;;;;;4999603;28;20383;-83
2022/01/05 05:03:40;;;;;;;;;;;3.90;99.90;;;;;;4999643;28;19917;-82
2022/01/05 05:06:06;;;;;;;;;;;3.90;99.90;;;;;;5015919;28;19951;-81
2022/01/05 05:08:31;;;;;;;;;;;4.00;99.90;;;;;;4999415;28;19925;-82
2022/01/05 05:10:57;;;;;;;;;;;4.00;99.90;;;;;;4999577;28;19913;-82
2022/01/05 05:13:23;;;;;;;;;;;4.00;99.90;;;;;;5005312;28;20648;-81
2022/01/05 05:15:48;;;;;;;;;;;4.00;99.90;;;;;;5015746;28;19920;-82
2022/01/05 05:18:14;;;;;;;;;;;4.00;99.90;;;;;;5016346;28;20407;-81
2022/01/05 05:20:40;;;;;;;;;;;4.10;99.90;;;;;;5033462;28;19917;-81
2022/01/05 05:23:06;;;;;;;;;;;4.10;99.90;;;;;;5016091;28;19928;-82
2022/01/05 05:25:31;;;;;;;;;;;4.10;99.90;;;;;;5015539;28;20299;-81
2022/01/05 05:27:57;;;;;;;;;;;4.10;99.90;;;;;;4999617;28;20349;-81
2022/01/05 05:30:23;;;;;;;;;;;4.10;99.90;;;;;;4995027;28;20616;-81
2022/01/05 05:32:48;;;;;;;;;;;4.10;99.90;;;;;;5015884;28;19960;-82
2022/01/05 05:35:14;;;;;;;;;;;4.10;99.90;;;;;;4999217;28;19917;-82
2022/01/05 05:37:40;;;;;;;;;;;4.20;99.90;;;;;;4985760;28;19964;-81
2022/01/05 05:40:06;;;;;;;;;;;4.20;99.90;;;;;;5011671;28;19914;-81
2022/01/05 05:42:32;;;;;;;;;;;4.20;99.90;;;;;;4996091;28;19940;-79
2022/01/05 05:44:57;;;;;;;;;;;4.20;99.90;;;;;;4984417;28;19918;-82
2022/01/05 05:47:23;;;;;;;;;;;4.20;99.90;;;;;;5014724;28;19939;-82
2022/01/05 05:49:49;;;;;;;;;;;4.30;99.90;;;;;;4998487;28;19967;-82
2022/01/05 05:52:15;;;;;;;;;;;4.30;99.90;;;;;;4999245;28;19921;-82
2022/01/05 05:54:40;;;;;;;;;;;4.30;99.90;;;;;;5014728;28;19957;-81
2022/01/05 05:57:06;;;;;;;;;;;4.20;99.90;;;;;;4998626;28;19968;-81
2022/01/05 05:59:32;;;;;;;;;;;4.20;99.90;;;;;;4998436;28;20067;-82
2022/01/05 06:01:58;;;;;;;;;;;4.20;99.90;;;;;;4999129;28;19917;-83
2022/01/05 06:04:23;;;;;;;;;;;4.20;99.90;;;;;;5014694;28;20403;-82
2022/01/05 06:06:49;;;;;;;;;;;4.30;99.90;;;;;;5031087;28;19974;-81
2022/01/05 06:09:14;;;;;;;;;;;4.30;99.90;;;;;;5014476;28;19923;-80
2022/01/05 06:11:40;;;;;;;;;;;4.30;99.90;;;;;;4998617;28;19924;-82
2022/01/05 06:14:05;;;;;;;;;;;4.30;99.90;;;;;;4995463;28;20373;-82
2022/01/05 06:16:31;;;;;;;;;;;4.30;99.90;;;;;;4994913;28;19924;-81
2022/01/05 06:18:56;;;;;;;;;;;4.30;99.90;;;;;;4996194;28;20289;-83
2022/01/05 06:21:22;;;;;;;;;;;4.30;99.90;;;;;;5011693;28;19973;-81
2022/01/05 06:23:48;;;;;;;;;;;4.30;99.90;;;;;;5014544;28;19995;-81
2022/01/05 06:26:13;;;;;;;;;;;4.30;99.90;;;;;;4994458;28;20398;-81
2022/01/05 06:28:39;;;;;;;;;;;4.30;99.90;;;;;;4981725;28;19932;-81
2022/01/05 06:31:04;;;;;;;;;;;4.30;99.90;;;;;;5014752;28;19913;-81
2022/01/05 06:33:30;;;;;;;;;;;4.30;99.90;;;;;;4999616;28;20012;-82
2022/01/05 06:35:56;;;;;;;;;;;4.20;99.90;;;;;;4962324;28;20015;-81
2022/01/05 06:38:21;;;;;;;;;;;4.20;99.90;;;;;;4978391;28;20287;-80
2022/01/05 06:40:47;;;;;;;;;;;4.20;99.90;;;;;;4994696;28;19924;-82
2022/01/05 06:43:14;;;;;;;;;;;4.20;99.90;;;;;;4997991;28;20016;-81
2022/01/05 06:45:40;;;;;;;;;;;4.10;99.90;;;;;;4994123;28;20273;-82
2022/01/05 06:48:05;;;;;;;;;;;4.10;99.90;;;;;;4990079;28;19924;-81
2022/01/05 06:50:31;;;;;;;;;;;4.10;99.90;;;;;;4994144;28;20284;-82
2022/01/05 06:52:57;;;;;;;;;;;4.10;99.90;;;;;;4997378;28;19924;-82
2022/01/05 06:55:23;;;;;;;;;;;4.00;99.90;;;;;;5013695;28;19924;-81
2022/01/05 06:57:51;;;;;;;;;;;3.90;99.90;;;;;;5014127;28;20278;-81
2022/01/05 07:00:17;;;;;;;;;;;3.80;99.90;;;;;;5012874;28;19981;-81
2022/01/05 07:02:43;;;;;;;;;;;3.70;99.90;;;;;;5013502;28;19923;-81
2022/01/05 07:05:08;;;;;;;;;;;3.60;99.90;;;;;;4980728;28;20007;-81
2022/01/05 07:07:35;;;;;;;;;;;3.50;99.90;;;;;;4997211;28;19917;-81
2022/01/05 07:10:00;;;;;;;;;;;3.40;99.90;;;;;;4977639;28;19917;-81
2022/01/05 07:12:26;;;;;;;;;;;3.20;99.90;;;;;;4989560;28;19913;-81
2022/01/05 07:14:52;;;;;;;;;;;3.10;99.90;;;;;;5012660;28;19921;-81
2022/01/05 07:17:18;;;;;;;;;;;3.10;99.90;;;;;;4997210;28;19913;-82
2022/01/05 07:19:44;;;;;;;;;;;3.00;99.90;;;;;;5013393;28;20389;-80
2022/01/05 07:22:10;;;;;;;;;;;3.00;99.90;;;;;;4991048;28;19964;-81
2022/01/05 07:24:36;;;;;;;;;;;2.90;99.90;;;;;;4992421;28;19925;-81
2022/01/05 07:27:01;;;;;;;;;;;2.90;99.90;;;;;;5008247;28;19956;-81
2022/01/05 07:29:27;;;;;;;;;;;2.90;99.90;;;;;;4999900;28;19952;-81
2022/01/05 07:31:52;;;;;;;;;;;2.80;99.90;;;;;;4977815;28;19922;-82
2022/01/05 07:34:18;;;;;;;;;;;2.70;99.90;;;;;;4977898;28;19917;-82
2022/01/05 07:36:44;;;;;;;;;;;2.70;99.90;;;;;;4990801;28;19917;-81
2022/01/05 07:39:09;;;;;;;;;;;2.70;99.90;;;;;;5013453;28;19917;-82
2022/01/05 07:41:35;;;;;;;;;;;2.60;99.90;;;;;;4997449;28;19928;-82
2022/01/05 07:44:01;;;;;;;;;;;2.60;99.90;;;;;;4997292;28;19917;-82
2022/01/05 07:46:27;;;;;;;;;;;2.50;99.90;;;;;;5008417;28;19920;-82
2022/01/05 07:48:53;;;;;;;;;;;2.50;99.90;;;;;;4996710;28;20273;-82
2022/01/05 07:51:18;;;;;;;;;;;2.50;99.90;;;;;;5012909;28;19917;-82
2022/01/05 07:53:44;;;;;;;;;;;2.40;99.90;;;;;;4993880;28;19917;-82
2022/01/05 07:56:09;;;;;;;;;;;2.40;99.90;;;;;;4993839;28;19925;-82
2022/01/05 07:58:35;;;;;;;;;;;2.30;99.90;;;;;;5010187;28;19922;-82
2022/01/05 08:01:02;;;;;;;;;;;2.30;99.90;;;;;;4982843;28;20311;-82
2022/01/05 08:03:28;;;;;;;;;;;2.30;99.90;;;;;;5013323;28;19917;-82
2022/01/05 08:05:53;;;;;;;;;;;2.30;99.90;;;;;;4996370;28;19924;-83
2022/01/05 08:08:19;;;;;;;;;;;2.30;99.90;;;;;;4996380;28;19957;-82
2022/01/05 08:10:45;;;;;;;;;;;2.30;99.90;;;;;;5013187;28;19920;-82
2022/01/05 08:13:11;;;;;;;;;;;2.30;99.90;;;;;;5013713;28;19914;-82
2022/01/05 08:15:36;;;;;;;;;;;2.20;99.90;;;;;;4996545;28;20011;-82
2022/01/05 08:18:02;;;;;;;;;;;2.20;99.90;;;;;;4999485;28;19924;-82
2022/01/05 08:20:27;;;;;;;;;;;2.20;99.90;;;;;;4999779;28;19923;-82
2022/01/05 08:22:53;;;;;;;;;;;2.20;99.90;;;;;;5033462;28;19909;-82
2022/01/05 08:25:20;;;;;;;;;;;2.20;99.90;;;;;;5016806;28;19913;-82
2022/01/05 08:27:46;;;;;;;;;;;2.20;99.90;;;;;;5000578;28;20389;-82
2022/01/05 08:30:14;;;;;;;;;;;2.20;99.90;;;;;;5016847;28;19920;-82
2022/01/05 08:32:40;;;;;;;;;;;2.20;99.90;;;;;;5000572;28;19913;-82
2022/01/05 08:35:06;;;;;;;;;;;2.30;99.90;;;;;;5033476;28;19940;-81
2022/01/05 08:37:31;;;;;;;;;;;2.30;99.90;;;;;;5016473;28;19955;-82
2022/01/05 08:39:57;;;;;;;;;;;2.30;99.90;;;;;;5016620;28;19939;-82
2022/01/05 08:42:23;;;;;;;;;;;2.30;99.90;;;;;;5033091;28;19925;-82
2022/01/05 08:44:48;;;;;;;;;;;2.40;99.90;;;;;;5000057;28;20007;-82
2022/01/05 08:47:14;;;;;;;;;;;2.40;99.90;;;;;;5000018;28;19917;-82
2022/01/05 08:49:40;;;;;;;;;;;2.40;99.90;;;;;;4996994;28;20519;-82
2022/01/05 08:52:06;;;;;;;;;;;2.40;99.90;;;;;;4996943;28;19960;-82
2022/01/05 08:54:32;;;;;;;;;;;2.40;99.90;;;;;;4993496;28;20390;-82
2022/01/05 08:56:57;;;;;;;;;;;2.50;99.90;;;;;;5016073;28;20323;-82
2022/01/05 08:59:23;;;;;;;;;;;2.50;99.90;;;;;;4996939;28;19925;-82
2022/01/05 09:01:49;;;;;;;;;;;2.50;99.90;;;;;;5016181;28;19924;-82
2022/01/05 09:04:14;;;;;;;;;;;2.50;99.90;;;;;;5000193;28;20397;-81
2022/01/05 09:06:40;;;;;;;;;;;2.50;99.90;;;;;;5015681;28;19921;-83
2022/01/05 09:09:06;;;;;;;;;;;2.50;99.90;;;;;;5011518;28;19917;-82
2022/01/05 09:11:32;;;;;;;;;;;2.40;99.90;;;;;;5007582;28;19972;-81
2022/01/05 09:13:57;;;;;;;;;;;2.40;99.90;;;;;;5032530;28;19956;-82
2022/01/05 09:16:23;;;;;;;;;;;2.30;99.90;;;;;;5015831;28;19925;-81
2022/01/05 09:18:50;;;;;;;;;;;2.20;99.90;;;;;;5015584;28;19917;-82
2022/01/05 09:21:15;;;;;;;;;;;2.20;99.90;;;;;;4996318;28;19921;-82
2022/01/05 09:23:43;;;;;;;;;;;2.20;99.90;;;;;;5012468;28;20399;-82
2022/01/05 09:26:09;;;;;;;;;;;2.20;99.90;;;;;;5012429;28;19960;-82
2022/01/05 09:28:40;;;;;;;;;;;2.20;99.90;;;;;;5009279;28;19921;-81
2022/01/05 09:31:06;;;;;;;;;;;2.30;99.90;;;;;;4994862;28;20024;-82
2022/01/05 09:33:32;;;;;;;;;;;2.30;99.90;;;;;;5012446;28;19960;-82
2022/01/05 09:36:05;;;;;;;;;;;2.30;99.90;;;;;;5006375;28;19917;-82
2022/01/05 09:41:56;;;;;;;;;;;2.30;99.90;;;;;;4999305;28;20017;-83
2022/01/05 09:44:08;;;;;;;;;;;2.20;99.90;;;;;;5018360;28;19921;-82
2022/01/05 09:46:43;;;;;;;;;;;2.10;99.90;;;;;;4998677;28;19978;-82
2022/01/05 09:49:16;;;;;;;;;;;2.00;99.90;;;;;;5015137;28;20295;-82
2022/01/05 09:51:43;;;;;;;;;;;2.00;99.90;;;;;;5015290;28;19975;-83
2022/01/05 09:54:12;;;;;;;;;;;1.90;99.90;;;;;;4998250;28;19913;-82
2022/01/05 09:56:38;;;;;;;;;;;1.90;99.90;;;;;;4998450;28;20012;-82
2022/01/05 09:59:04;;;;;;;;;;;1.90;99.90;;;;;;4994717;28;19918;-82
2022/01/05 10:01:30;;;;;;;;;;;1.80;99.90;;;;;;4982532;28;19917;-82
2022/01/05 10:03:56;;;;;;;;;;;1.80;99.90;;;;;;4998511;28;19921;-82
2022/01/05 10:06:22;;;;;;;;;;;1.80;99.90;;;;;;5012007;28;19924;-82
2022/01/05 10:08:47;;;;;;;;;;;1.70;99.90;;;;;;5012055;28;19918;-82
2022/01/05 10:11:13;;;;;;;;;;;1.70;99.90;;;;;;4997315;28;19929;-82
2022/01/05 10:13:39;;;;;;;;;;;1.80;99.90;;;;;;4998090;28;19917;-82
2022/01/05 10:16:05;;;;;;;;;;;1.80;99.90;;;;;;4994598;28;19918;-82
2022/01/05 10:18:40;;;;;;;;;;;1.90;99.90;;;;;;5013923;28;19963;-82
2022/01/05 10:21:06;;;;;;;;;;;1.90;99.90;;;;;;5014097;28;19913;-83
2022/01/05 10:23:33;;;;;;;;;;;1.80;99.90;;;;;;4996339;28;19995;-82
2022/01/05 10:26:17;;;;;;;;;;;1.70;99.90;;;;;;5010702;28;19992;-82
2022/01/05 10:28:45;;;;;;;;;;;1.70;99.90;;;;;;5009791;28;19917;-82
2022/01/05 10:31:15;;;;;;;;;;;1.60;99.90;;;;;;5001328;28;19960;-82
2022/01/05 10:33:41;;;;;;;;;;;1.50;99.90;;;;;;4998333;28;20466;-84
2022/01/05 10:36:07;;;;;;;;;;;1.50;99.90;;;;;;4995132;28;19921;-84
2022/01/05 10:38:32;;;;;;;;;;;1.40;99.90;;;;;;4996091;28;20067;-83
2022/01/05 10:40:58;;;;;;;;;;;1.30;99.90;;;;;;4991882;28;20495;-86
2022/01/05 10:43:24;;;;;;;;;;;1.20;99.90;;;;;;4991606;28;19920;-84
2022/01/05 10:45:51;;;;;;;;;;;1.20;99.90;;;;;;4990076;28;19917;-84
2022/01/05 10:48:18;;;;;;;;;;;1.20;99.90;;;;;;4997268;28;19924;-83
2022/01/05 10:50:44;;;;;;;;;;;1.10;99.90;;;;;;5010588;28;19920;-83
2022/01/05 10:53:14;;;;;;;;;;;1.10;99.90;;;;;;4995952;28;19955;-85
2022/01/05 10:55:42;;;;;;;;;;;1.20;99.90;;;;;;5010524;28;19917;-83
2022/01/05 10:58:10;;;;;;;;;;;1.20;99.90;;;;;;5010014;28;20467;-83
2022/01/05 11:00:35;;;;;;;;;;;1.30;99.90;;;;;;5014895;28;19940;-82
2022/01/05 11:03:02;;;;;;;;;;;1.40;99.90;;;;;;5027283;28;20387;-84
2022/01/05 11:05:27;;;;;;;;;;;1.60;99.90;;;;;;5009432;28;20008;-85
2022/01/05 11:08:05;;;;;;;;;;;1.80;99.90;;;;;;5003353;28;20320;-85
2022/01/05 11:10:31;;;;;;;;;;;1.90;99.90;;;;;;4991257;28;20372;-83
2022/01/05 11:12:57;;;;;;;;;;;2.00;99.90;;;;;;5010194;28;19925;-83
2022/01/05 11:15:27;;;;;;;;;;;2.00;99.90;;;;;;4993107;28;19995;-82
2022/01/05 11:18:05;;;;;;;;;;;2.00;99.90;;;;;;4981857;28;19933;-83
2022/01/05 11:20:31;;;;;;;;;;;2.10;99.90;;;;;;5009512;28;19920;-84
2022/01/05 11:22:57;;;;;;;;;;;2.10;99.90;;;;;;4991101;28;19913;-84
2022/01/05 11:25:23;;;;;;;;;;;2.10;99.90;;;;;;5008225;28;19940;-83
2022/01/05 11:27:48;;;;;;;;;;;2.10;99.90;;;;;;4993759;28;20427;-84
2022/01/05 11:30:14;;;;;;;;;;;2.10;99.90;;;;;;4990818;28;19921;-85
2022/01/05 11:32:40;;;;;;;;;;;2.10;99.90;;;;;;4991809;28;19917;-83
2022/01/05 11:35:07;;;;;;;;;;;2.00;99.90;;;;;;4983073;28;19919;-83
2022/01/05 11:37:34;;;;;;;;;;;2.00;99.90;;;;;;5008803;28;20052;-83
2022/01/05 11:40:03;;;;;;;;;;;2.00;99.90;;;;;;4993275;28;19913;-82
2022/01/05 11:42:33;;;;;;;;;;;1.90;99.90;;;;;;4994453;28;19920;-83
2022/01/05 11:44:59;;;;;;;;;;;1.90;99.90;;;;;;5010313;28;19921;-82
2022/01/05 11:47:26;;;;;;;;;;;1.90;99.90;;;;;;5009698;28;20359;-83
2022/01/05 11:49:52;;;;;;;;;;;1.90;99.90;;;;;;4991341;28;20338;-84
2022/01/05 11:52:18;;;;;;;;;;;1.90;99.90;;;;;;5014591;28;20379;-83
2022/01/05 11:55:01;;;;;;;;;;;1.90;99.90;;;;;;5001866;28;19913;-84
2022/01/05 11:57:26;;;;;;;;;;;1.80;99.90;;;;;;5017416;28;19917;-83
2022/01/05 12:00:12;;;;;;;;;;;1.80;99.90;;;;;;5001015;28;19924;-82
2022/01/05 12:02:40;;;;;;;;;;;1.70;99.90;;;;;;5017992;28;19948;-83
2022/01/05 12:05:06;;;;;;;;;;;1.60;99.90;;;;;;4996883;28;19921;-81
2022/01/05 12:07:36;;;;;;;;;;;1.60;99.90;;;;;;4998591;28;20414;-84
2022/01/05 12:10:13;;;;;;;;;;;1.60;99.90;;;;;;4999294;28;19921;-82
2022/01/05 12:13:11;;;;;;;;;;;1.50;99.90;;;;;;5015984;28;19960;-84
2022/01/05 12:15:43;;;;;;;;;;;1.50;99.90;;;;;;4966196;28;19962;-85
2022/01/05 12:18:11;;;;;;;;;;;1.50;99.90;;;;;;5015855;28;20490;-85
2022/01/05 12:20:38;;;;;;;;;;;1.50;99.90;;;;;;4999701;28;19969;-84
2022/01/05 12:23:16;;;;;;;;;;;1.50;99.90;;;;;;4999819;28;19921;-83
2022/01/05 12:26:15;;;;;;;;;;;1.50;99.90;;;;;;4998199;28;19921;-83
2022/01/05 12:28:49;;;;;;;;;;;1.50;99.90;;;;;;4992055;28;19987;-81
2022/01/05 12:31:14;;;;;;;;;;;1.40;99.90;;;;;;5016551;28;19913;-81
2022/01/05 12:33:41;;;;;;;;;;;1.40;99.90;;;;;;5016844;28;20296;-81
2022/01/05 12:36:08;;;;;;;;;;;1.40;99.90;;;;;;4998711;28;19963;-81
2022/01/05 12:38:34;;;;;;;;;;;1.30;99.90;;;;;;5015659;28;19948;-81
2022/01/05 12:41:19;;;;;;;;;;;1.40;99.90;;;;;;5015737;28;20364;-81
2022/01/05 12:43:45;;;;;;;;;;;1.40;99.90;;;;;;5015680;28;20563;-82
2022/01/05 12:46:13;;;;;;;;;;;1.40;99.90;;;;;;5013171;28;19921;-82
2022/01/05 12:48:43;;;;;;;;;;;1.40;99.90;;;;;;4999234;28;19913;-82
2022/01/05 12:51:17;;;;;;;;;;;1.40;99.90;;;;;;5001669;28;19916;-83
2022/01/05 12:54:00;;;;;;;;;;;1.30;99.90;;;;;;5000068;28;20000;-82
2022/01/05 12:56:27;;;;;;;;;;;1.40;99.90;;;;;;4980349;28;19918;-83
2022/01/05 12:58:53;;;;;;;;;;;1.40;99.90;;;;;;5012397;28;19964;-82
2022/01/05 13:01:20;;;;;;;;;;;1.40;99.90;;;;;;5010045;28;19952;-84
2022/01/05 13:03:46;;;;;;;;;;;1.30;99.90;;;;;;4997412;28;19913;-82
2022/01/05 13:06:24;;;;;;;;;;;1.40;99.90;;;;;;5028033;28;19917;-83
2022/01/05 13:08:55;;;;;;;;;;;1.40;99.90;;;;;;5011948;28;19920;-81
2022/01/05 13:11:42;;;;;;;;;;;1.40;99.90;;;;;;4997038;28;19921;-83
2022/01/05 13:14:26;;;;;;;;;;;1.40;99.90;;;;;;5012375;28;19956;-83
2022/01/05 13:16:52;;;;;;;;;;;1.40;99.90;;;;;;4996332;28;19921;-83
2022/01/05 13:19:32;;;;;;;;;;;1.50;99.90;;;;;;5024333;28;20303;-84
2022/01/05 13:21:59;;;;;;;;;;;1.50;99.90;;;;;;5012509;28;19919;-83
2022/01/05 13:24:39;;;;;;;;;;;1.50;99.90;;;;;;5029202;28;19939;-83
2022/01/05 13:27:06;;;;;;;;;;;1.50;99.90;;;;;;4995884;28;19920;-83
2022/01/05 13:29:32;;;;;;;;;;;1.50;99.90;;;;;;4993370;28;19918;-83
2022/01/05 13:32:02;;;;;;;;;;;1.40;99.90;;;;;;4993565;28;20003;-82
2022/01/05 13:34:48;;;;;;;;;;;1.40;99.90;;;;;;4992606;28;19944;-83
2022/01/05 13:37:25;;;;;;;;;;;1.40;99.90;;;;;;5002836;28;19917;-84
2022/01/05 13:39:51;;;;;;;;;;;1.40;99.90;;;;;;4993242;28;19919;-83
2022/01/05 13:42:18;;;;;;;;;;;1.40;99.90;;;;;;5015292;28;19909;-83
2022/01/05 13:44:45;;;;;;;;;;;1.30;99.90;;;;;;4999177;28;19924;-83
2022/01/05 13:47:13;;;;;;;;;;;1.30;99.90;;;;;;5014878;28;20316;-82
2022/01/05 13:49:38;;;;;;;;;;;1.40;99.90;;;;;;4998167;28;19921;-83
2022/01/05 13:52:11;;;;;;;;;;;1.40;99.90;;;;;;4999107;28;19921;-80
2022/01/05 13:54:41;;;;;;;;;;;1.40;99.90;;;;;;5014374;28;19923;-80
2022/01/05 13:57:24;;;;;;;;;;;1.40;99.90;;;;;;5014819;28;19914;-80
2022/01/05 13:59:50;;;;;;;;;;;1.40;99.90;;;;;;5014289;28;20015;-81
2022/01/05 14:02:16;;;;;;;;;;;1.40;99.90;;;;;;5015297;28;20494;-81
2022/01/05 14:04:52;;;;;;;;;;;1.40;99.90;;;;;;5032525;28;20015;-82
2022/01/05 14:07:19;;;;;;;;;;;1.30;99.90;;;;;;5007375;28;19976;-81
2022/01/05 14:09:45;;;;;;;;;;;1.40;99.90;;;;;;5014269;28;20371;-81
2022/01/05 14:12:27;;;;;;;;;;;1.30;99.90;;;;;;5014354;28;19967;-81
2022/01/05 14:14:53;;;;;;;;;;;1.40;99.90;;;;;;4999255;28;19921;-81
2022/01/05 14:17:19;;;;;;;;;;;1.30;99.90;;;;;;4997928;28;20368;-81
2022/01/05 14:19:44;;;;;;;;;;;1.40;99.90;;;;;;4997724;28;19964;-80
2022/01/05 14:22:14;;;;;;;;;;;1.40;99.90;;;;;;5014922;28;19917;-81
2022/01/05 14:24:41;;;;;;;;;;;1.30;99.90;;;;;;4994769;28;19968;-80
2022/01/05 14:27:14;;;;;;;;;;;1.30;99.90;;;;;;4998064;28;20356;-81
2022/01/05 14:29:40;;;;;;;;;;;1.30;99.90;;;;;;5014235;28;19913;-81
2022/01/05 14:32:07;;;;;;;;;;;1.30;99.90;;;;;;5031255;28;19944;-81
2022/01/05 14:34:41;;;;;;;;;;;1.30;99.90;;;;;;4995057;28;19917;-81
2022/01/05 14:37:08;;;;;;;;;;;1.30;99.90;;;;;;4995144;28;19913;-81